sensor_id;sensor_type;location;lat;lon;timestamp;pressure;altitude;pressure_sealevel;temperature;humidity
56456;BME280;42354;53.218;6.564;2022-09-24T00:01:55;100886.16;;;13.68;100.00
56456;BME280;42354;53.218;6.564;2022-09-24T00:04:24;100888.13;;;13.66;100.00
56456;BME280;42354;53.218;6.564;2022-09-24T00:06:50;100880.09;;;13.64;100.00
56456;BME280;42354;53.218;6.564;2022-09-24T00:09:18;100878.34;;;13.63;100.00
56456;BME280;42354;53.218;6.564;2022-09-24T00:11:49;100872.16;;;13.61;100.00
56456;BME280;42354;53.218;6.564;2022-09-24T00:14:18;100876.81;;;13.59;100.00
56456;BME280;42354;53.218;6.564;2022-09-24T00:16:45;100880.41;;;13.60;100.00
56456;BME280;42354;53.218;6.564;2022-09-24T00:19:12;100875.06;;;13.58;100.00
56456;BME280;42354;53.218;6.564;2022-09-24T00:21:38;100871.50;;;13.58;100.00
56456;BME280;42354;53.218;6.564;2022-09-24T00:24:13;100877.03;;;13.56;100.00
56456;BME280;42354;53.218;6.564;2022-09-24T00:26:57;100877.88;;;13.57;100.00
56456;BME280;42354;53.218;6.564;2022-09-24T00:29:23;100882.44;;;13.56;100.00
56456;BME280;42354;53.218;6.564;2022-09-24T00:31:49;100880.72;;;13.55;100.00
56456;BME280;42354;53.218;6.564;2022-09-24T00:34:16;100869.00;;;13.54;100.00
56456;BME280;42354;53.218;6.564;2022-09-24T00:36:41;100874.41;;;13.54;100.00
56456;BME280;42354;53.218;6.564;2022-09-24T00:39:08;100874.31;;;13.56;100.00
56456;BME280;42354;53.218;6.564;2022-09-24T00:41:36;100878.75;;;13.57;100.00
56456;BME280;42354;53.218;6.564;2022-09-24T00:47:13;100875.06;;;13.58;100.00
56456;BME280;42354;53.218;6.564;2022-09-24T00:49:41;100875.94;;;13.59;100.00
56456;BME280;42354;53.218;6.564;2022-09-24T00:52:07;100869.44;;;13.61;100.00
56456;BME280;42354;53.218;6.564;2022-09-24T00:54:33;100866.75;;;13.61;100.00
56456;BME280;42354;53.218;6.564;2022-09-24T00:57:00;100868.47;;;13.62;100.00
56456;BME280;42354;53.218;6.564;2022-09-24T00:59:26;100869.25;;;13.64;100.00
56456;BME280;42354;53.218;6.564;2022-09-24T01:01:54;100866.53;;;13.64;100.00
56456;BME280;42354;53.218;6.564;2022-09-24T01:04:22;100870.00;;;13.66;100.00
56456;BME280;42354;53.218;6.564;2022-09-24T01:06:48;100877.16;;;13.67;100.00
56456;BME280;42354;53.218;6.564;2022-09-24T01:09:15;100872.50;;;13.69;100.00
56456;BME280;42354;53.218;6.564;2022-09-24T01:14:50;100866.31;;;13.67;100.00
56456;BME280;42354;53.218;6.564;2022-09-24T01:23:27;100859.94;;;13.68;100.00
56456;BME280;42354;53.218;6.564;2022-09-24T01:32:34;100853.75;;;13.66;100.00
56456;BME280;42354;53.218;6.564;2022-09-24T01:35:13;100851.91;;;13.67;100.00
56456;BME280;42354;53.218;6.564;2022-09-24T01:37:46;100855.28;;;13.70;100.00
56456;BME280;42354;53.218;6.564;2022-09-24T01:40:13;100847.66;;;13.63;100.00
56456;BME280;42354;53.218;6.564;2022-09-24T01:42:42;100851.03;;;13.66;100.00
56456;BME280;42354;53.218;6.564;2022-09-24T01:45:09;100852.66;;;13.69;100.00
56456;BME280;42354;53.218;6.564;2022-09-24T01:47:37;100841.81;;;13.69;100.00
56456;BME280;42354;53.218;6.564;2022-09-24T01:50:09;100848.00;;;13.71;100.00
56456;BME280;42354;53.218;6.564;2022-09-24T01:53:02;100836.63;;;13.66;100.00
56456;BME280;42354;53.218;6.564;2022-09-24T01:55:33;100832.38;;;13.62;100.00
56456;BME280;42354;53.218;6.564;2022-09-24T01:58:24;100838.66;;;13.62;100.00
56456;BME280;42354;53.218;6.564;2022-09-24T02:00:57;100828.78;;;13.61;100.00
56456;BME280;42354;53.218;6.564;2022-09-24T02:03:28;100831.28;;;13.64;100.00
56456;BME280;42354;53.218;6.564;2022-09-24T02:06:02;100836.63;;;13.66;100.00
56456;BME280;42354;53.218;6.564;2022-09-24T02:08:32;100823.81;;;13.68;100.00
56456;BME280;42354;53.218;6.564;2022-09-24T02:11:09;100835.53;;;13.68;100.00
56456;BME280;42354;53.218;6.564;2022-09-24T02:13:56;100832.16;;;13.65;100.00
56456;BME280;42354;53.218;6.564;2022-09-24T02:16:33;100831.50;;;13.61;100.00
56456;BME280;42354;53.218;6.564;2022-09-24T02:19:04;100833.44;;;13.59;100.00
56456;BME280;42354;53.218;6.564;2022-09-24T02:21:30;100828.03;;;13.59;100.00
56456;BME280;42354;53.218;6.564;2022-09-24T02:24:02;100820.66;;;13.61;100.00
56456;BME280;42354;53.218;6.564;2022-09-24T02:26:30;100829.66;;;13.62;100.00
56456;BME280;42354;53.218;6.564;2022-09-24T02:28:55;100830.31;;;13.65;100.00
56456;BME280;42354;53.218;6.564;2022-09-24T02:31:27;100828.47;;;13.66;100.00
56456;BME280;42354;53.218;6.564;2022-09-24T02:33:54;100823.06;;;13.66;100.00
56456;BME280;42354;53.218;6.564;2022-09-24T02:36:40;100820.34;;;13.66;100.00
56456;BME280;42354;53.218;6.564;2022-09-24T02:39:06;100822.94;;;13.67;100.00
56456;BME280;42354;53.218;6.564;2022-09-24T02:41:32;100826.31;;;13.71;100.00
56456;BME280;42354;53.218;6.564;2022-09-24T02:43:59;100821.78;;;13.71;100.00
56456;BME280;42354;53.218;6.564;2022-09-24T02:46:25;100826.13;;;13.74;100.00
56456;BME280;42354;53.218;6.564;2022-09-24T02:48:51;100825.91;;;13.77;100.00
56456;BME280;42354;53.218;6.564;2022-09-24T02:51:17;100830.66;;;13.73;100.00
56456;BME280;42354;53.218;6.564;2022-09-24T02:53:42;100813.09;;;13.66;100.00
56456;BME280;42354;53.218;6.564;2022-09-24T02:56:08;100827.19;;;13.71;100.00
56456;BME280;42354;53.218;6.564;2022-09-24T02:58:34;100826.22;;;13.72;100.00
56456;BME280;42354;53.218;6.564;2022-09-24T03:01:02;100826.22;;;13.72;100.00
56456;BME280;42354;53.218;6.564;2022-09-24T03:03:27;100826.13;;;13.74;100.00
56456;BME280;42354;53.218;6.564;2022-09-24T03:05:53;100825.25;;;13.73;100.00
56456;BME280;42354;53.218;6.564;2022-09-24T03:08:20;100819.81;;;13.73;100.00
56456;BME280;42354;53.218;6.564;2022-09-24T03:10:45;100827.09;;;13.73;100.00
56456;BME280;42354;53.218;6.564;2022-09-24T03:13:11;100812.78;;;13.71;100.00
56456;BME280;42354;53.218;6.564;2022-09-24T03:15:37;100818.28;;;13.69;100.00
56456;BME280;42354;53.218;6.564;2022-09-24T03:18:02;100821.97;;;13.68;100.00
56456;BME280;42354;53.218;6.564;2022-09-24T03:20:28;100823.63;;;13.71;100.00
56456;BME280;42354;53.218;6.564;2022-09-24T03:22:53;100816.47;;;13.70;100.00
56456;BME280;42354;53.218;6.564;2022-09-24T03:25:19;100809.09;;;13.72;100.00
56456;BME280;42354;53.218;6.564;2022-09-24T03:27:45;100809.09;;;13.72;100.00
56456;BME280;42354;53.218;6.564;2022-09-24T03:30:11;100817.78;;;13.77;100.00
56456;BME280;42354;53.218;6.564;2022-09-24T03:32:55;100815.06;;;13.77;100.00
56456;BME280;42354;53.218;6.564;2022-09-24T03:35:20;100815.81;;;13.79;100.00
56456;BME280;42354;53.218;6.564;2022-09-24T03:37:47;100814.84;;;13.80;100.00
56456;BME280;42354;53.218;6.564;2022-09-24T03:40:12;100807.69;;;13.79;100.00
56456;BME280;42354;53.218;6.564;2022-09-24T03:42:38;100821.69;;;13.85;100.00
56456;BME280;42354;53.218;6.564;2022-09-24T03:45:04;100814.53;;;13.84;100.00
56456;BME280;42354;53.218;6.564;2022-09-24T03:47:29;100819.75;;;13.87;100.00
56456;BME280;42354;53.218;6.564;2022-09-24T03:49:57;100815.19;;;13.88;100.00
56456;BME280;42354;53.218;6.564;2022-09-24T03:52:23;100814.88;;;13.93;100.00
56456;BME280;42354;53.218;6.564;2022-09-24T03:54:49;100813.13;;;13.92;100.00
56456;BME280;42354;53.218;6.564;2022-09-24T03:57:17;100812.06;;;13.94;100.00
56456;BME280;42354;53.218;6.564;2022-09-24T03:59:43;100806.63;;;13.94;100.00
56456;BME280;42354;53.218;6.564;2022-09-24T04:02:09;100811.06;;;13.95;100.00
56456;BME280;42354;53.218;6.564;2022-09-24T04:04:35;100813.56;;;13.98;100.00
56456;BME280;42354;53.218;6.564;2022-09-24T04:07:02;100817.16;;;13.99;100.00
56456;BME280;42354;53.218;6.564;2022-09-24T04:09:28;100809.78;;;14.01;100.00
56456;BME280;42354;53.218;6.564;2022-09-24T04:11:56;100815.09;;;14.02;100.00
56456;BME280;42354;53.218;6.564;2022-09-24T04:14:23;100816.94;;;14.02;100.00
56456;BME280;42354;53.218;6.564;2022-09-24T04:16:49;100805.13;;;14.03;100.00
56456;BME280;42354;53.218;6.564;2022-09-24T04:19:14;100825.63;;;14.07;100.00
56456;BME280;42354;53.218;6.564;2022-09-24T04:21:41;100814.78;;;14.07;100.00
56456;BME280;42354;53.218;6.564;2022-09-24T04:24:06;100822.91;;;14.07;100.00
56456;BME280;42354;53.218;6.564;2022-09-24T04:26:34;100807.63;;;14.06;100.00
56456;BME280;42354;53.218;6.564;2022-09-24T04:28:59;100810.31;;;14.06;100.00
56456;BME280;42354;53.218;6.564;2022-09-24T04:31:25;100811.31;;;14.05;100.00
56456;BME280;42354;53.218;6.564;2022-09-24T04:33:58;100808.81;;;14.02;100.00
56456;BME280;42354;53.218;6.564;2022-09-24T04:36:24;100796.22;;;14.01;100.00
56456;BME280;42354;53.218;6.564;2022-09-24T04:38:49;100807.28;;;13.98;100.00
56456;BME280;42354;53.218;6.564;2022-09-24T04:41:15;100811.06;;;13.95;100.00
56456;BME280;42354;53.218;6.564;2022-09-24T04:43:41;100806.72;;;13.93;100.00
56456;BME280;42354;53.218;6.564;2022-09-24T04:46:07;100812.06;;;13.94;100.00
56456;BME280;42354;53.218;6.564;2022-09-24T04:48:35;100820.28;;;13.93;100.00
56456;BME280;42354;53.218;6.564;2022-09-24T04:51:05;100814.00;;;13.92;100.00
56456;BME280;42354;53.218;6.564;2022-09-24T04:53:32;100813.13;;;13.92;100.00
56456;BME280;42354;53.218;6.564;2022-09-24T04:55:58;100814.22;;;13.89;100.00
56456;BME280;42354;53.218;6.564;2022-09-24T04:58:25;100814.22;;;13.89;100.00
56456;BME280;42354;53.218;6.564;2022-09-24T05:00:51;100811.59;;;13.87;100.00
56456;BME280;42354;53.218;6.564;2022-09-24T05:03:17;100818.13;;;13.85;100.00
56456;BME280;42354;53.218;6.564;2022-09-24T05:05:45;100813.66;;;13.84;100.00
56456;BME280;42354;53.218;6.564;2022-09-24T05:08:11;100818.13;;;13.85;100.00
56456;BME280;42354;53.218;6.564;2022-09-24T05:10:37;100812.91;;;13.82;100.00
56456;BME280;42354;53.218;6.564;2022-09-24T05:13:03;100817.34;;;13.83;100.00
56456;BME280;42354;53.218;6.564;2022-09-24T05:15:28;100814.63;;;13.83;100.00
56456;BME280;42354;53.218;6.564;2022-09-24T05:17:54;100824.63;;;13.82;100.00
56456;BME280;42354;53.218;6.564;2022-09-24T05:20:19;100820.94;;;13.83;100.00
56456;BME280;42354;53.218;6.564;2022-09-24T05:22:46;100825.59;;;13.81;100.00
56456;BME280;42354;53.218;6.564;2022-09-24T05:25:13;100822.78;;;13.83;100.00
56456;BME280;42354;53.218;6.564;2022-09-24T05:27:46;100819.97;;;13.84;100.00
56456;BME280;42354;53.218;6.564;2022-09-24T05:30:16;100817.66;;;13.78;100.00
56456;BME280;42354;53.218;6.564;2022-09-24T05:32:43;100818.44;;;13.80;100.00
56456;BME280;42354;53.218;6.564;2022-09-24T05:35:10;100818.97;;;13.85;100.00
56456;BME280;42354;53.218;6.564;2022-09-24T05:37:38;100822.88;;;13.81;100.00
56456;BME280;42354;53.218;6.564;2022-09-24T05:40:05;100826.13;;;13.86;100.00
56456;BME280;42354;53.218;6.564;2022-09-24T05:42:50;100826.34;;;13.83;100.00
56456;BME280;42354;53.218;6.564;2022-09-24T05:45:17;100828.97;;;13.85;100.00
56456;BME280;42354;53.218;6.564;2022-09-24T05:47:44;100833.09;;;13.91;100.00
56456;BME280;42354;53.218;6.564;2022-09-24T05:50:11;100831.34;;;13.90;100.00
56456;BME280;42354;53.218;6.564;2022-09-24T05:52:38;100840.25;;;13.92;100.00
56456;BME280;42354;53.218;6.564;2022-09-24T05:55:04;100843.94;;;13.91;100.00
56456;BME280;42354;53.218;6.564;2022-09-24T05:57:30;100835.03;;;13.88;100.00
56456;BME280;42354;53.218;6.564;2022-09-24T05:59:55;100842.00;;;13.93;100.00
56456;BME280;42354;53.218;6.564;2022-09-24T06:02:20;100852.63;;;13.96;100.00
56456;BME280;42354;53.218;6.564;2022-09-24T06:04:46;100848.84;;;13.98;100.00
56456;BME280;42354;53.218;6.564;2022-09-24T06:07:11;100860.44;;;14.00;100.00
56456;BME280;42354;53.218;6.564;2022-09-24T06:09:37;100856.00;;;13.99;100.00
56456;BME280;42354;53.218;6.564;2022-09-24T06:12:02;100854.16;;;14.00;100.00
56456;BME280;42354;53.218;6.564;2022-09-24T06:14:27;100856.88;;;14.00;100.00
56456;BME280;42354;53.218;6.564;2022-09-24T06:16:53;100849.69;;;13.99;100.00
56456;BME280;42354;53.218;6.564;2022-09-24T06:19:19;100862.72;;;14.06;100.00
56456;BME280;42354;53.218;6.564;2022-09-24T06:21:45;100856.44;;;14.06;100.00
56456;BME280;42354;53.218;6.564;2022-09-24T06:24:10;100860.03;;;14.06;100.00
56456;BME280;42354;53.218;6.564;2022-09-24T06:26:36;100868.81;;;14.10;100.00
56456;BME280;42354;53.218;6.564;2022-09-24T06:29:02;100875.00;;;14.12;100.00
56456;BME280;42354;53.218;6.564;2022-09-24T06:31:28;100873.16;;;14.12;100.00
56456;BME280;42354;53.218;6.564;2022-09-24T06:33:53;100864.81;;;14.15;100.00
56456;BME280;42354;53.218;6.564;2022-09-24T06:36:19;100874.56;;;14.18;100.00
56456;BME280;42354;53.218;6.564;2022-09-24T06:38:44;100882.72;;;14.18;100.00
56456;BME280;42354;53.218;6.564;2022-09-24T06:41:09;100877.19;;;14.19;100.00
56456;BME280;42354;53.218;6.564;2022-09-24T06:43:35;100881.63;;;14.20;100.00
56456;BME280;42354;53.218;6.564;2022-09-24T06:46:01;100879.78;;;14.21;100.00
56456;BME280;42354;53.218;6.564;2022-09-24T06:48:31;100886.94;;;14.22;100.00
56456;BME280;42354;53.218;6.564;2022-09-24T06:50:56;100883.38;;;14.22;100.00
56456;BME280;42354;53.218;6.564;2022-09-24T06:53:22;100886.75;;;14.25;100.00
56456;BME280;42354;53.218;6.564;2022-09-24T06:55:48;100888.47;;;14.26;100.00
56456;BME280;42354;53.218;6.564;2022-09-24T06:58:18;100898.34;;;14.27;100.00
56456;BME280;42354;53.218;6.564;2022-09-24T07:00:53;100885.88;;;14.25;100.00
56456;BME280;42354;53.218;6.564;2022-09-24T07:03:19;100890.09;;;14.16;100.00
56456;BME280;42354;53.218;6.564;2022-09-24T07:05:46;100892.06;;;14.27;100.00
56456;BME280;42354;53.218;6.564;2022-09-24T07:08:11;100890.22;;;14.27;100.00
56456;BME280;42354;53.218;6.564;2022-09-24T07:10:41;100900.00;;;14.30;100.00
56456;BME280;42354;53.218;6.564;2022-09-24T07:13:08;100894.44;;;14.31;100.00
56456;BME280;42354;53.218;6.564;2022-09-24T07:15:34;100902.16;;;14.37;100.00
56456;BME280;42354;53.218;6.564;2022-09-24T07:17:59;100897.50;;;14.39;100.00
56456;BME280;42354;53.218;6.564;2022-09-24T07:20:24;100908.94;;;14.44;100.00
56456;BME280;42354;53.218;6.564;2022-09-24T07:22:53;100905.25;;;14.45;100.00
56456;BME280;42354;53.218;6.564;2022-09-24T07:25:20;100909.59;;;14.48;100.00
56456;BME280;42354;53.218;6.564;2022-09-24T07:27:45;100915.88;;;14.48;100.00
56456;BME280;42354;53.218;6.564;2022-09-24T07:30:11;100911.22;;;14.50;100.00
56456;BME280;42354;53.218;6.564;2022-09-24T07:32:37;100918.81;;;14.58;100.00
56456;BME280;42354;53.218;6.564;2022-09-24T07:35:03;100916.75;;;14.62;100.00
56456;BME280;42354;53.218;6.564;2022-09-24T07:37:28;100917.53;;;14.64;100.00
56456;BME280;42354;53.218;6.564;2022-09-24T07:39:57;100924.16;;;14.60;100.00
56456;BME280;42354;53.218;6.564;2022-09-24T07:42:23;100925.13;;;14.59;100.00
56456;BME280;42354;53.218;6.564;2022-09-24T07:44:49;100924.16;;;14.60;100.00
56456;BME280;42354;53.218;6.564;2022-09-24T07:47:15;100924.56;;;14.54;100.00
56456;BME280;42354;53.218;6.564;2022-09-24T07:49:41;100930.97;;;14.52;100.00
56456;BME280;42354;53.218;6.564;2022-09-24T07:52:09;100923.06;;;14.49;100.00
56456;BME280;42354;53.218;6.564;2022-09-24T07:54:34;100940.31;;;14.48;100.00
56456;BME280;42354;53.218;6.564;2022-09-24T07:57:00;100942.28;;;14.46;100.00
56456;BME280;42354;53.218;6.564;2022-09-24T07:59:29;100932.19;;;14.48;100.00
56456;BME280;42354;53.218;6.564;2022-09-24T08:01:56;100933.03;;;14.49;100.00
56456;BME280;42354;53.218;6.564;2022-09-24T08:04:22;100944.66;;;14.51;100.00
56456;BME280;42354;53.218;6.564;2022-09-24T08:06:47;100936.53;;;14.51;100.00
56456;BME280;42354;53.218;6.564;2022-09-24T08:09:14;100942.06;;;14.49;100.00
56456;BME280;42354;53.218;6.564;2022-09-24T08:11:41;100934.78;;;14.50;100.00
56456;BME280;42354;53.218;6.564;2022-09-24T08:14:07;100943.47;;;14.55;100.00
56456;BME280;42354;53.218;6.564;2022-09-24T08:16:32;100938.38;;;14.63;100.00
56456;BME280;42354;53.218;6.564;2022-09-24T08:18:58;100946.84;;;14.71;100.00
56456;BME280;42354;53.218;6.564;2022-09-24T08:21:25;100941.31;;;14.73;100.00
56456;BME280;42354;53.218;6.564;2022-09-24T08:23:52;100947.38;;;14.76;100.00
56456;BME280;42354;53.218;6.564;2022-09-24T08:26:17;100954.56;;;14.77;100.00
56456;BME280;42354;53.218;6.564;2022-09-24T08:28:43;100951.94;;;14.76;100.00
56456;BME280;42354;53.218;6.564;2022-09-24T08:31:11;100953.47;;;14.80;100.00
56456;BME280;42354;53.218;6.564;2022-09-24T08:33:37;100952.38;;;14.82;100.00
56456;BME280;42354;53.218;6.564;2022-09-24T08:36:06;100955.09;;;14.82;100.00
56456;BME280;42354;53.218;6.564;2022-09-24T08:38:33;100957.72;;;14.84;100.00
56456;BME280;42354;53.218;6.564;2022-09-24T08:46:35;100968.69;;;14.95;100.00
56456;BME280;42354;53.218;6.564;2022-09-24T08:49:29;100974.13;;;14.95;100.00
56456;BME280;42354;53.218;6.564;2022-09-24T08:55:04;100963.69;;;14.89;100.00
56456;BME280;42354;53.218;6.564;2022-09-24T08:57:43;100978.03;;;14.91;99.74
56456;BME280;42354;53.218;6.564;2022-09-24T09:00:18;100975.41;;;14.90;98.65
56456;BME280;42354;53.218;6.564;2022-09-24T09:05:54;100978.03;;;14.91;98.06
56456;BME280;42354;53.218;6.564;2022-09-24T09:08:57;100990.94;;;15.00;97.67
56456;BME280;42354;53.218;6.564;2022-09-24T09:11:31;100980.41;;;15.08;96.93
56456;BME280;42354;53.218;6.564;2022-09-24T09:14:05;100985.84;;;15.08;96.54
56456;BME280;42354;53.218;6.564;2022-09-24T09:19:38;100982.47;;;15.18;96.33
56456;BME280;42354;53.218;6.564;2022-09-24T09:22:12;101017.34;;;15.11;96.12
56456;BME280;42354;53.218;6.564;2022-09-24T09:24:46;100979.44;;;15.09;95.86
56456;BME280;42354;53.218;6.564;2022-09-24T09:27:14;101001.50;;;15.05;96.32
56456;BME280;42354;53.218;6.564;2022-09-24T09:29:47;101009.97;;;15.00;96.53
56456;BME280;42354;53.218;6.564;2022-09-24T09:40:43;100994.75;;;14.98;96.54
56456;BME280;42354;53.218;6.564;2022-09-24T09:43:12;100990.72;;;14.91;96.23
56456;BME280;42354;53.218;6.564;2022-09-24T09:51:15;101014.97;;;15.06;94.60
56456;BME280;42354;53.218;6.564;2022-09-24T09:53:53;101004.97;;;15.07;93.55
56456;BME280;42354;53.218;6.564;2022-09-24T09:56:22;101005.63;;;15.10;93.14
56456;BME280;42354;53.218;6.564;2022-09-24T09:58:49;100996.38;;;15.13;93.13
56456;BME280;42354;53.218;6.564;2022-09-24T10:01:30;101006.59;;;15.22;93.06
56456;BME280;42354;53.218;6.564;2022-09-24T10:03:57;101004.84;;;15.34;92.88
56456;BME280;42354;53.218;6.564;2022-09-24T10:06:34;101012.78;;;15.37;91.41
56456;BME280;42354;53.218;6.564;2022-09-24T10:09:17;101007.97;;;15.40;91.53
56456;BME280;42354;53.218;6.564;2022-09-24T10:11:47;101003.06;;;15.45;91.20
56456;BME280;42354;53.218;6.564;2022-09-24T10:14:14;101008.94;;;15.52;90.83
56456;BME280;42354;53.218;6.564;2022-09-24T10:16:42;101008.72;;;15.55;90.51
56456;BME280;42354;53.218;6.564;2022-09-24T10:19:27;101012.22;;;15.57;90.41
56456;BME280;42354;53.218;6.564;2022-09-24T10:21:55;101012.97;;;15.59;90.82
56456;BME280;42354;53.218;6.564;2022-09-24T10:24:23;101016.03;;;15.67;90.93
56456;BME280;42354;53.218;6.564;2022-09-24T10:26:51;101010.47;;;15.69;91.26
56456;BME280;42354;53.218;6.564;2022-09-24T10:29:20;101005.03;;;15.69;90.57
56456;BME280;42354;53.218;6.564;2022-09-24T10:32:13;101019.97;;;15.63;91.78
56456;BME280;42354;53.218;6.564;2022-09-24T10:34:53;101020.94;;;15.62;91.85
56456;BME280;42354;53.218;6.564;2022-09-24T10:37:19;101021.59;;;15.66;91.63
56456;BME280;42354;53.218;6.564;2022-09-24T10:39:44;101016.88;;;15.55;91.85
56456;BME280;42354;53.218;6.564;2022-09-24T10:42:36;101018.94;;;15.52;92.86
56456;BME280;42354;53.218;6.564;2022-09-24T10:45:03;101001.53;;;15.54;93.56
56456;BME280;42354;53.218;6.564;2022-09-24T10:52:49;101021.44;;;15.55;94.12
56456;BME280;42354;53.218;6.564;2022-09-24T10:55:19;101011.00;;;15.48;94.83
56456;BME280;42354;53.218;6.564;2022-09-24T10:58:13;101024.84;;;15.33;95.59
56456;BME280;42354;53.218;6.564;2022-09-24T11:01:22;101023.53;;;15.26;94.94
56456;BME280;42354;53.218;6.564;2022-09-24T11:06:56;101026.59;;;15.21;93.98
56456;BME280;42354;53.218;6.564;2022-09-24T11:12:12;101032.03;;;15.21;93.55
56456;BME280;42354;53.218;6.564;2022-09-24T11:15:51;101030.19;;;15.22;93.12
56456;BME280;42354;53.218;6.564;2022-09-24T11:20:45;101051.25;;;15.18;92.67
56456;BME280;42354;53.218;6.564;2022-09-24T11:31:48;101035.59;;;14.83;95.50
56456;BME280;42354;53.218;6.564;2022-09-24T11:34:48;101042.00;;;14.82;97.16
56456;BME280;42354;53.218;6.564;2022-09-24T11:37:41;101047.34;;;14.84;97.19
56456;BME280;42354;53.218;6.564;2022-09-24T11:48:22;101043.53;;;14.99;96.16
56456;BME280;42354;53.218;6.564;2022-09-24T11:51:22;101041.03;;;14.96;95.46
56456;BME280;42354;53.218;6.564;2022-09-24T11:56:25;101046.16;;;15.13;93.89
56456;BME280;42354;53.218;6.564;2022-09-24T11:59:25;101054.19;;;15.02;92.99
56456;BME280;42354;53.218;6.564;2022-09-24T12:01:55;101048.97;;;14.99;93.27
56456;BME280;42354;53.218;6.564;2022-09-24T12:04:40;101052.03;;;14.95;93.30
56456;BME280;42354;53.218;6.564;2022-09-24T12:07:12;101055.06;;;15.03;93.27
56456;BME280;42354;53.218;6.564;2022-09-24T12:10:04;101042.03;;;15.08;92.72
56456;BME280;42354;53.218;6.564;2022-09-24T12:12:38;101059.75;;;15.01;92.83
56456;BME280;42354;53.218;6.564;2022-09-24T12:15:16;101061.59;;;15.00;93.23
56456;BME280;42354;53.218;6.564;2022-09-24T12:17:48;101062.66;;;14.98;92.94
56456;BME280;42354;53.218;6.564;2022-09-24T12:20:35;101058.75;;;14.89;92.69
56456;BME280;42354;53.218;6.564;2022-09-24T12:23:10;101060.69;;;14.87;92.95
56456;BME280;42354;53.218;6.564;2022-09-24T12:25:40;101064.28;;;14.88;93.15
56456;BME280;42354;53.218;6.564;2022-09-24T12:28:11;101056.34;;;14.84;93.10
56456;BME280;42354;53.218;6.564;2022-09-24T12:30:39;101068.19;;;14.83;93.42
56456;BME280;42354;53.218;6.564;2022-09-24T12:36:19;101063.19;;;14.77;93.99
56456;BME280;42354;53.218;6.564;2022-09-24T12:41:23;101062.75;;;14.71;94.26
56456;BME280;42354;53.218;6.564;2022-09-24T12:44:10;101066.44;;;14.70;94.39
56456;BME280;42354;53.218;6.564;2022-09-24T12:46:54;101072.94;;;14.67;93.83
56456;BME280;42354;53.218;6.564;2022-09-24T12:51:55;101072.28;;;14.64;94.12
56456;BME280;42354;53.218;6.564;2022-09-24T12:54:22;101070.53;;;14.63;94.05
56456;BME280;42354;53.218;6.564;2022-09-24T12:56:50;101070.53;;;14.63;93.87
56456;BME280;42354;53.218;6.564;2022-09-24T12:59:26;101071.81;;;14.57;94.03
56456;BME280;42354;53.218;6.564;2022-09-24T13:01:53;101083.56;;;14.58;94.38
56456;BME280;42354;53.218;6.564;2022-09-24T13:06:45;101085.25;;;14.46;95.32
56456;BME280;42354;53.218;6.564;2022-09-24T13:09:35;101091.94;;;14.40;95.73
56456;BME280;42354;53.218;6.564;2022-09-24T13:15:13;101091.16;;;14.38;95.89
56456;BME280;42354;53.218;6.564;2022-09-24T13:17:34;101086.91;;;14.34;96.36
56456;BME280;42354;53.218;6.564;2022-09-24T13:20:05;101098.53;;;14.36;96.12
56456;BME280;42354;53.218;6.564;2022-09-24T13:22:34;101090.59;;;14.33;96.11
56456;BME280;42354;53.218;6.564;2022-09-24T13:30:20;101085.13;;;14.20;98.98
56456;BME280;42354;53.218;6.564;2022-09-24T13:32:56;101086.75;;;14.23;99.07
56456;BME280;42354;53.218;6.564;2022-09-24T13:35:29;101096.66;;;14.24;99.29
56456;BME280;42354;53.218;6.564;2022-09-24T13:40:51;101092.56;;;14.31;100.00
56456;BME280;42354;53.218;6.564;2022-09-24T13:43:39;101074.06;;;14.24;100.00
56456;BME280;42354;53.218;6.564;2022-09-24T13:46:12;101084.50;;;14.30;99.62
56456;BME280;42354;53.218;6.564;2022-09-24T13:48:54;101096.25;;;14.30;98.73
56456;BME280;42354;53.218;6.564;2022-09-24T13:51:24;101091.38;;;14.35;98.34
56456;BME280;42354;53.218;6.564;2022-09-24T13:54:01;101098.44;;;14.38;98.34
56456;BME280;42354;53.218;6.564;2022-09-24T13:56:28;101081.28;;;14.37;97.97
56456;BME280;42354;53.218;6.564;2022-09-24T13:59:11;101084.50;;;14.44;97.93
56456;BME280;42354;53.218;6.564;2022-09-24T14:01:46;101095.03;;;14.48;98.53
56456;BME280;42354;53.218;6.564;2022-09-24T14:04:17;101085.91;;;14.49;98.89
56456;BME280;42354;53.218;6.564;2022-09-24T14:06:48;101086.22;;;14.45;99.11
56456;BME280;42354;53.218;6.564;2022-09-24T14:12:01;101092.13;;;14.51;99.03
56456;BME280;42354;53.218;6.564;2022-09-24T14:14:42;101093.09;;;14.50;98.99
56456;BME280;42354;53.218;6.564;2022-09-24T14:17:12;101087.47;;;14.54;98.97
56456;BME280;42354;53.218;6.564;2022-09-24T14:19:38;101067.25;;;14.58;98.12
56456;BME280;42354;53.218;6.564;2022-09-24T14:22:08;101091.69;;;14.58;97.79
56456;BME280;42354;53.218;6.564;2022-09-24T14:27:20;101088.63;;;14.49;97.56
56456;BME280;42354;53.218;6.564;2022-09-24T14:29:52;101098.88;;;14.59;97.94
56456;BME280;42354;53.218;6.564;2022-09-24T14:32:27;101090.31;;;14.65;97.80
56456;BME280;42354;53.218;6.564;2022-09-24T14:34:56;101097.47;;;14.66;97.89
56456;BME280;42354;53.218;6.564;2022-09-24T14:37:29;101097.28;;;14.69;97.94
56456;BME280;42354;53.218;6.564;2022-09-24T14:40:02;101102.81;;;14.67;98.11
56456;BME280;42354;53.218;6.564;2022-09-24T14:42:39;101111.13;;;14.51;98.48
56456;BME280;42354;53.218;6.564;2022-09-24T14:45:09;101105.50;;;14.40;99.12
56456;BME280;42354;53.218;6.564;2022-09-24T14:47:42;101118.50;;;14.35;99.60